Time;durP1;ratioP1;P1;durP2;ratioP2;P2;SDS_P1;SDS_P2;PMS_P1;PMS_P2;Temp;Humidity;BMP_temperature;BMP_pressure;BME280_temperature;BME280_humidity;BME280_pressure;Samples;Min_cycle;Max_cycle;Signal;HPM_P1;HPM_P2
2022/05/13 00:00:29;;;;;;;11.63;8.60;;;;;;;14.96;100.00;96495.03;5021956;28;20112;-76
2022/05/13 00:02:55;;;;;;;12.40;9.33;;;;;;;14.98;100.00;96504.41;5031276;28;20044;-76
2022/05/13 00:05:21;;;;;;;11.67;9.80;;;;;;;14.95;100.00;96498.66;5021730;28;20523;-76
2022/05/13 00:07:46;;;;;;;12.73;9.57;;;;;;;14.98;100.00;96503.59;5033515;28;20072;-76
2022/05/13 00:10:12;;;;;;;12.37;8.30;;;;;;;14.99;100.00;96505.22;5027339;28;20842;-75
2022/05/13 00:12:43;;;;;;;11.60;8.60;;;;;;;14.96;100.00;96510.91;5031838;28;20033;-76
2022/05/13 00:15:16;;;;;;;11.50;8.40;;;;;;;14.96;100.00;96505.63;5036399;28;20034;-76
2022/05/13 00:17:42;;;;;;;14.07;10.10;;;;;;;14.93;100.00;96503.31;5038208;28;20047;-76
2022/05/13 00:20:09;;;;;;;13.03;9.87;;;;;;;15.03;100.00;96502.06;5036738;28;20031;-76
2022/05/13 00:22:45;;;;;;;11.63;9.17;;;;;;;14.90;100.00;96506.34;5034207;28;20026;-76
2022/05/13 00:25:11;;;;;;;12.63;8.73;;;;;;;14.93;100.00;96505.97;5034091;28;20037;-75
2022/05/13 00:27:37;;;;;;;12.03;9.20;;;;;;;14.94;100.00;96513.72;5039042;28;20041;-76
2022/05/13 00:30:03;;;;;;;11.50;9.00;;;;;;;15.03;100.00;96506.53;5041710;28;20040;-77
2022/05/13 00:32:29;;;;;;;14.00;9.57;;;;;;;14.98;100.00;96522.13;5037109;28;20017;-76
2022/05/13 00:34:55;;;;;;;12.83;9.43;;;;;;;15.02;100.00;96526.06;5026768;28;20686;-76
2022/05/13 00:37:20;;;;;;;12.67;8.93;;;;;;;14.95;100.00;96514.53;5039704;28;20033;-76
2022/05/13 00:39:46;;;;;;;11.60;9.43;;;;;;;14.98;100.00;96519.47;5040238;28;20777;-76
2022/05/13 00:42:14;;;;;;;12.03;9.20;;;;;;;14.93;100.00;96511.28;5027191;28;20033;-75
2022/05/13 00:44:41;;;;;;;11.93;9.10;;;;;;;14.95;100.00;96510.06;5021047;28;20409;-75
2022/05/13 00:47:06;;;;;;;12.07;8.80;;;;;;;14.95;100.00;96511.91;5042961;28;20037;-76
2022/05/13 00:49:34;;;;;;;11.90;9.60;;;;;;;14.98;100.00;96491.16;5009676;28;20040;-77
2022/05/13 00:52:02;;;;;;;12.63;8.47;;;;;;;15.03;100.00;96494.13;5042167;28;20032;-76
2022/05/13 00:54:29;;;;;;;9.73;7.87;;;;;;;15.00;100.00;96486.53;5017911;28;20049;-75
2022/05/13 00:56:57;;;;;;;9.20;7.77;;;;;;;15.00;100.00;96480.41;5033167;28;20061;-75
2022/05/13 00:59:26;;;;;;;12.47;8.47;;;;;;;14.96;100.00;96489.72;5027667;28;20038;-75
2022/05/13 01:01:52;;;;;;;13.67;8.27;;;;;;;14.98;100.00;96485.06;5038142;28;20632;-75
2022/05/13 01:04:20;;;;;;;9.87;7.73;;;;;;;14.94;100.00;96481.13;5013691;28;20048;-76
2022/05/13 01:06:52;;;;;;;9.80;8.27;;;;;;;14.94;100.00;96481.94;5031903;28;20475;-75
2022/05/13 01:09:20;;;;;;;15.43;8.45;;;;;;;14.98;100.00;96479.75;5027010;28;20403;-75
2022/05/13 01:11:48;;;;;;;14.37;8.80;;;;;;;14.94;100.00;96479.31;5024062;28;20112;-75
2022/05/13 01:14:20;;;;;;;13.13;8.50;;;;;;;14.94;100.00;96481.13;5034207;28;20056;-75
2022/05/13 01:19:29;;;;;;;9.23;7.33;;;;;;;15.00;100.00;96475.94;5034967;28;20029;-75
2022/05/13 01:21:55;;;;;;;10.97;8.43;;;;;;;15.01;100.00;96472.28;5026322;28;20368;-75
2022/05/13 01:24:21;;;;;;;10.17;8.57;;;;;;;14.95;100.00;96475.63;5028383;28;20491;-76
2022/05/13 01:26:47;;;;;;;10.27;7.70;;;;;;;14.95;100.00;96482.75;5036627;28;20047;-76
2022/05/13 01:29:13;;;;;;;11.37;7.37;;;;;;;14.95;100.00;96474.81;5026699;28;20033;-76
2022/05/13 01:31:43;;;;;;;10.13;8.43;;;;;;;14.92;100.00;96478.66;5030600;28;20021;-75
2022/05/13 01:34:12;;;;;;;11.97;8.13;;;;;;;14.95;100.00;96480.94;5039282;28;20037;-76
2022/05/13 01:36:40;;;;;;;9.35;7.97;;;;;;;14.91;100.00;96486.78;5031126;28;20032;-76
2022/05/13 01:39:06;;;;;;;12.25;7.45;;;;;;;14.92;100.00;96491.06;5024192;28;20726;-75
2022/05/13 01:41:33;;;;;;;12.68;8.00;;;;;;;14.95;100.00;96488.06;5026652;28;20037;-75
2022/05/13 01:43:59;;;;;;;10.82;7.40;;;;;;;14.94;100.00;96486.44;5011997;28;20076;-74
2022/05/13 01:46:25;;;;;;;9.00;6.55;;;;;;;14.92;100.00;96475.19;5032116;28;20394;-75
2022/05/13 01:48:52;;;;;;;9.70;7.17;;;;;;;14.95;100.00;96482.75;5014034;28;20111;-75
2022/05/13 01:51:19;;;;;;;9.73;8.17;;;;;;;14.93;100.00;96476.84;5034324;28;20037;-75
2022/05/13 01:53:45;;;;;;;13.30;9.10;;;;;;;14.89;100.00;96475.53;5030214;28;20096;-75
2022/05/13 01:56:11;;;;;;;10.38;7.63;;;;;;;14.89;100.00;96479.03;5031551;28;20483;-75
2022/05/13 01:58:37;;;;;;;10.25;7.97;;;;;;;14.88;100.00;96480.00;5013290;28;20063;-75
2022/05/13 02:01:06;;;;;;;9.50;7.85;;;;;;;14.93;100.00;96471.56;5037283;28;20033;-75
2022/05/13 02:03:44;;;;;;;9.87;7.83;;;;;;;14.94;100.00;96462.59;5033075;28;20434;-75
2022/05/13 02:06:15;;;;;;;9.68;7.57;;;;;;;14.94;100.00;96455.47;5034083;28;20037;-75
2022/05/13 02:08:40;;;;;;;9.88;7.85;;;;;;;14.96;100.00;96457.94;5034933;28;20632;-74
2022/05/13 02:11:06;;;;;;;10.27;7.93;;;;;;;14.97;100.00;96462.22;5027477;28;20040;-75
2022/05/13 02:13:33;;;;;;;11.43;8.32;;;;;;;14.98;100.00;96456.75;5015443;28;20017;-75
2022/05/13 02:15:58;;;;;;;11.00;8.07;;;;;;;14.95;100.00;96456.28;5031302;28;20087;-74
2022/05/13 02:18:24;;;;;;;12.57;9.25;;;;;;;14.96;100.00;96450.00;5032266;28;20054;-75
2022/05/13 02:20:50;;;;;;;11.43;8.05;;;;;;;14.86;100.00;96458.22;5038401;28;20525;-74
2022/05/13 02:23:20;;;;;;;11.13;8.52;;;;;;;14.79;100.00;96466.03;5040572;28;20445;-75
2022/05/13 02:25:46;;;;;;;10.65;8.52;;;;;;;14.88;100.00;96465.97;5034509;28;20064;-74
2022/05/13 02:28:12;;;;;;;10.63;8.07;;;;;;;14.85;100.00;96467.97;5039199;28;21706;-75
2022/05/13 02:30:37;;;;;;;12.02;9.30;;;;;;;14.91;100.00;96463.78;5039348;28;20041;-74
2022/05/13 02:33:03;;;;;;;13.05;9.88;;;;;;;14.92;100.00;96464.59;5033636;28;20482;-74
2022/05/13 02:35:29;;;;;;;11.05;9.55;;;;;;;14.83;100.00;96469.16;5035286;28;20040;-75
2022/05/13 02:37:54;;;;;;;14.50;10.40;;;;;;;14.80;100.00;96474.81;5033713;28;20060;-74
2022/05/13 02:41:11;;;;;;;13.32;8.80;;;;;;;14.82;100.00;96489.53;5029474;28;20491;-74
2022/05/13 02:43:07;;;;;;;10.52;8.88;;;;;;;14.76;100.00;96503.47;5025851;28;20029;-74
2022/05/13 02:45:32;;;;;;;11.73;9.98;;;;;;;14.79;100.00;96505.75;5020030;28;20483;-74
2022/05/13 02:47:58;;;;;;;12.65;9.73;;;;;;;14.79;100.00;96505.75;5038580;28;20040;-74
2022/05/13 02:50:25;;;;;;;13.87;10.07;;;;;;;14.75;100.00;96498.34;5024294;28;20320;-74
2022/05/13 02:52:51;;;;;;;13.90;10.73;;;;;;;14.73;100.00;96501.19;5031623;28;20036;-74
2022/05/13 02:55:19;;;;;;;14.48;10.50;;;;;;;14.70;100.00;96501.53;5022435;28;20587;-74
2022/05/13 02:57:46;;;;;;;15.57;11.57;;;;;;;14.69;100.00;96499.91;5013647;28;20559;-74
2022/05/13 03:00:13;;;;;;;14.15;11.00;;;;;;;14.64;100.00;96496.94;5028115;28;20076;-75
2022/05/13 03:02:38;;;;;;;12.63;11.03;;;;;;;14.59;100.00;96492.19;5025710;28;20101;-74
2022/05/13 03:05:05;;;;;;;16.67;12.43;;;;;;;14.64;100.00;96491.66;5027841;28;20151;-74
2022/05/13 03:07:31;;;;;;;17.80;11.97;;;;;;;14.65;100.00;96487.16;5026082;28;20057;-74
2022/05/13 03:09:57;;;;;;;13.17;11.37;;;;;;;14.63;100.00;96486.56;5021367;28;20514;-74
2022/05/13 03:12:22;;;;;;;16.13;11.47;;;;;;;14.66;100.00;96484.38;5027093;28;20026;-74
2022/05/13 03:14:48;;;;;;;13.10;10.53;;;;;;;14.56;100.00;96495.19;5027456;28;20030;-74
2022/05/13 03:17:14;;;;;;;13.10;10.93;;;;;;;14.65;100.00;96501.22;5037235;28;20041;-74
2022/05/13 03:19:40;;;;;;;13.23;10.83;;;;;;;14.62;100.00;96501.59;5044416;28;20071;-74
2022/05/13 03:22:06;;;;;;;13.87;11.63;;;;;;;14.54;100.00;96522.81;5041604;28;20167;-76
2022/05/13 03:24:33;;;;;;;15.17;12.73;;;;;;;14.53;100.00;96510.59;5016603;28;20203;-74
2022/05/13 03:26:59;;;;;;;15.32;11.82;;;;;;;14.58;100.00;96497.66;5033803;28;20116;-75
2022/05/13 03:29:24;;;;;;;13.30;11.90;;;;;;;14.52;100.00;96485.97;5022091;28;20170;-74
2022/05/13 03:31:50;;;;;;;14.63;11.40;;;;;;;14.58;100.00;96490.53;5038464;28;20057;-74
2022/05/13 03:34:16;;;;;;;16.37;11.27;;;;;;;14.56;100.00;96494.38;5032520;28;20030;-75
2022/05/13 03:36:42;;;;;;;17.63;15.73;;;;;;;14.47;100.00;96492.75;5037291;28;20063;-75
2022/05/13 03:39:08;;;;;;;17.13;14.33;;;;;;;14.46;100.00;96501.69;5036043;28;20025;-75
2022/05/13 03:41:34;;;;;;;15.17;10.57;;;;;;;14.45;100.00;96487.63;5020990;28;20075;-75
2022/05/13 03:44:00;;;;;;;12.27;10.03;;;;;;;14.43;100.00;96494.13;5031651;28;20750;-75
2022/05/13 03:46:26;;;;;;;14.18;11.00;;;;;;;14.47;100.00;96474.22;5044282;28;20075;-76
2022/05/13 03:48:51;;;;;;;12.27;10.77;;;;;;;14.46;100.00;96488.47;5014497;28;20065;-75
2022/05/13 03:51:17;;;;;;;12.57;10.55;;;;;;;14.42;100.00;96480.06;5044304;28;20090;-75
2022/05/13 03:53:43;;;;;;;12.03;10.07;;;;;;;14.42;100.00;96487.16;5037221;28;20029;-75
2022/05/13 03:56:08;;;;;;;12.65;10.98;;;;;;;14.49;100.00;96493.41;5029798;28;20053;-75
2022/05/13 03:58:35;;;;;;;12.30;10.85;;;;;;;14.49;100.00;96488.13;5029399;28;20037;-75
2022/05/13 04:01:02;;;;;;;12.27;10.13;;;;;;;14.46;100.00;96488.47;5039264;28;20039;-75
2022/05/13 04:03:28;;;;;;;13.32;10.23;;;;;;;14.48;100.00;96478.50;5034625;28;20048;-75
2022/05/13 04:08:56;;;;;;;11.52;8.80;;;;;;;14.44;100.00;96482.53;5021372;28;20399;-75
2022/05/13 04:11:29;;;;;;;10.80;8.57;;;;;;;14.39;100.00;96494.47;5012958;28;20048;-75
2022/05/13 04:16:40;;;;;;;11.37;8.17;;;;;;;14.31;100.00;96507.72;5050251;28;20245;-74
2022/05/13 04:19:06;;;;;;;13.00;8.37;;;;;;;14.36;100.00;96492.16;5020674;28;20044;-75
2022/05/13 04:21:34;;;;;;;12.33;9.10;;;;;;;14.34;100.00;96494.16;5017849;28;20029;-74
2022/05/13 04:24:04;;;;;;;12.17;8.43;;;;;;;14.32;100.00;96501.47;5008214;28;20034;-75
2022/05/13 04:26:30;;;;;;;11.27;8.00;;;;;;;14.29;100.00;96512.41;5029067;28;20150;-75
2022/05/13 04:28:56;;;;;;;14.93;8.17;;;;;;;14.27;100.00;96502.97;5028193;28;20032;-75
2022/05/13 04:31:24;;;;;;;11.00;8.57;;;;;;;14.34;100.00;96502.09;5035647;28;20029;-76
2022/05/13 04:33:51;;;;;;;11.90;8.13;;;;;;;14.33;100.00;96503.09;5031811;28;20035;-76
2022/05/13 04:36:18;;;;;;;11.77;8.00;;;;;;;14.35;100.00;96498.47;5038559;28;20487;-76
2022/05/13 04:38:45;;;;;;;11.10;7.73;;;;;;;14.45;100.00;96500.84;5023718;28;20028;-76
2022/05/13 04:43:56;;;;;;;15.13;10.63;;;;;;;14.52;100.00;96508.94;5028336;28;20108;-77
2022/05/13 04:46:23;;;;;;;12.80;9.67;;;;;;;14.53;100.00;96513.25;5035105;28;20048;-77
2022/05/13 04:48:50;;;;;;;15.83;10.43;;;;;;;14.52;100.00;96508.94;5031080;28;20496;-77
2022/05/13 04:51:20;;;;;;;13.60;9.33;;;;;;;14.56;100.00;96508.44;5037012;28;20029;-77
2022/05/13 04:53:48;;;;;;;12.67;9.13;;;;;;;14.55;100.00;96520.03;5036323;28;20025;-77
2022/05/13 04:56:14;;;;;;;13.10;8.93;;;;;;;14.55;100.00;96524.47;5038552;28;20034;-77
2022/05/13 04:58:42;;;;;;;11.07;9.47;;;;;;;14.54;100.00;96528.13;5015972;28;20636;-76
2022/05/13 05:01:09;;;;;;;14.73;10.33;;;;;;;14.44;100.00;96528.31;5029856;28;20064;-77
2022/05/13 05:03:36;;;;;;;13.77;9.37;;;;;;;14.51;100.00;96534.59;5016626;28;20117;-76
2022/05/13 05:06:04;;;;;;;12.18;9.77;;;;;;;14.54;100.00;96533.41;5039950;28;20048;-76
2022/05/13 05:08:31;;;;;;;10.60;8.57;;;;;;;14.68;100.00;96524.69;5025705;28;20094;-76
2022/05/13 05:10:57;;;;;;;11.68;8.95;;;;;;;14.56;100.00;96534.06;5030780;28;20033;-77
2022/05/13 05:13:35;;;;;;;12.98;9.32;;;;;;;14.55;100.00;96540.34;5030964;28;20025;-77
2022/05/13 05:16:01;;;;;;;11.97;9.13;;;;;;;14.65;100.00;96527.69;5012511;28;20055;-77
2022/05/13 05:18:28;;;;;;;14.55;9.65;;;;;;;14.62;100.00;96536.03;5010684;28;20100;-77
2022/05/13 05:20:54;;;;;;;12.27;8.95;;;;;;;14.56;100.00;96531.44;5025967;28;20132;-76
2022/05/13 05:23:32;;;;;;;12.30;9.27;;;;;;;14.73;100.00;96540.88;5037844;28;20167;-76
2022/05/13 05:25:59;;;;;;;12.25;9.38;;;;;;;14.77;100.00;96539.53;5036158;28;20037;-76
2022/05/13 05:28:28;;;;;;;13.50;9.73;;;;;;;14.92;100.00;96541.38;5037840;28;20033;-76
2022/05/13 05:30:56;;;;;;;12.10;9.52;;;;;;;14.85;100.00;96542.13;5038364;28;20124;-76
2022/05/13 05:33:22;;;;;;;12.35;9.38;;;;;;;14.81;100.00;96540.00;5037030;28;20071;-76
2022/05/13 05:35:48;;;;;;;10.73;8.33;;;;;;;14.85;100.00;96541.28;5031414;28;20124;-76
2022/05/13 05:38:14;;;;;;;11.80;9.23;;;;;;;14.79;100.00;96552.59;5032313;28;20519;-76
2022/05/13 05:40:41;;;;;;;11.95;9.75;;;;;;;14.87;100.00;96544.56;5026245;28;20825;-76
2022/05/13 05:43:13;;;;;;;12.30;9.23;;;;;;;14.94;100.00;96532.25;5035019;28;20037;-76
2022/05/13 05:45:40;;;;;;;13.50;9.20;;;;;;;15.01;100.00;96535.03;5017800;28;20405;-76
2022/05/13 05:48:08;;;;;;;12.10;10.00;;;;;;;15.05;100.00;96537.13;5032406;28;20045;-75
2022/05/13 05:50:34;;;;;;;15.45;11.15;;;;;;;15.00;100.00;96541.31;5033890;28;20376;-76
2022/05/13 05:53:01;;;;;;;12.80;9.25;;;;;;;15.01;100.00;96542.97;5034783;28;20061;-77
2022/05/13 05:58:14;;;;;;;12.88;9.48;;;;;;;15.13;100.00;96543.38;5039566;28;20037;-76
2022/05/13 06:00:44;;;;;;;13.63;9.85;;;;;;;15.20;100.00;96545.09;5029105;28;20037;-77
2022/05/13 06:03:10;;;;;;;13.25;9.77;;;;;;;15.16;100.00;96535.88;5039159;28;20044;-77
2022/05/13 06:05:35;;;;;;;11.60;9.88;;;;;;;15.08;100.00;96531.47;5036655;28;20029;-77
2022/05/13 06:08:04;;;;;;;10.52;9.23;;;;;;;15.17;100.00;96540.16;5026169;28;20036;-77
2022/05/13 06:10:32;;;;;;;12.60;8.35;;;;;;;15.20;100.00;96542.47;5005741;28;20061;-77
2022/05/13 06:12:57;;;;;;;13.00;9.25;;;;;;;15.26;100.00;96539.09;5028471;28;20721;-76
2022/05/13 06:15:24;;;;;;;11.32;9.40;;;;;;;15.34;100.00;96548.78;5034630;28;20123;-76
2022/05/13 06:17:55;;;;;;;13.80;8.85;;;;;;;15.31;100.00;96555.25;5033992;28;20461;-76
2022/05/13 06:20:25;;;;;;;10.80;8.32;;;;;;;15.13;100.00;96543.38;5035910;28;20508;-76
2022/05/13 06:22:52;;;;;;;13.25;8.18;;;;;;;15.11;100.00;96551.47;5033350;28;20026;-76
2022/05/13 06:25:21;;;;;;;14.35;8.25;;;;;;;15.22;100.00;96550.22;5034291;28;20061;-74
2022/05/13 06:27:49;;;;;;;10.35;7.93;;;;;;;15.08;100.00;96552.66;5040505;28;20037;-76
2022/05/13 06:30:18;;;;;;;10.70;7.38;;;;;;;15.16;100.00;96558.91;5037982;28;20048;-76
2022/05/13 06:32:44;;;;;;;9.75;6.03;;;;;;;15.13;100.00;96549.50;5036139;28;20025;-77
2022/05/13 06:35:11;;;;;;;10.60;7.20;;;;;;;15.16;100.00;96556.25;5037348;28;20037;-76
2022/05/13 06:37:37;;;;;;;9.18;6.43;;;;;;;15.19;100.00;96547.91;5041699;28;20037;-76
2022/05/13 06:40:05;;;;;;;11.52;7.40;;;;;;;15.61;100.00;96547.31;5035733;28;20026;-76
2022/05/13 06:42:31;;;;;;;10.80;7.18;;;;;;;15.72;100.00;96557.50;5048256;28;20025;-76
2022/05/13 06:44:57;;;;;;;11.35;6.18;;;;;;;15.77;100.00;96544.53;5039871;28;20037;-76
2022/05/13 06:47:22;;;;;;;9.90;5.65;;;;;;;16.01;100.00;96545.22;5038662;28;20443;-76
2022/05/13 06:49:48;;;;;;;10.80;5.20;;;;;;;16.00;100.00;96549.72;5030269;28;20041;-76
2022/05/13 06:52:14;;;;;;;10.27;5.90;;;;;;;16.05;100.00;96551.81;5039026;28;20040;-76
2022/05/13 06:54:41;;;;;;;10.73;5.78;;;;;;;16.04;100.00;96542.22;5036728;28;20526;-76
2022/05/13 06:57:07;;;;;;;8.95;6.07;;;;;;;16.33;100.00;96545.78;5035820;28;20376;-77
2022/05/13 06:59:33;;;;;;;8.45;6.07;;;;;;;16.71;100.00;96543.75;5033929;28;20692;-77
2022/05/13 07:01:59;;;;;;;8.00;5.38;;;;;;;16.87;100.00;96532.06;5034702;28;20132;-77
2022/05/13 07:04:25;;;;;;;9.52;6.00;;;;;;;16.65;100.00;96539.19;5037161;28;20183;-77
2022/05/13 07:06:50;;;;;;;8.98;5.28;;;;;;;16.92;100.00;96534.97;5039779;28;20025;-76
2022/05/13 07:09:16;;;;;;;14.10;5.28;;;;;;;16.88;100.00;96533.72;5035547;28;20034;-76
2022/05/13 07:11:44;;;;;;;11.95;5.95;;;;;;;17.05;100.00;96537.72;5020899;28;20443;-77
2022/05/13 07:14:11;;;;;;;10.45;5.43;;;;;;;16.44;100.00;96548.78;5028729;28;20049;-76
2022/05/13 07:16:36;;;;;;;11.68;5.53;;;;;;;16.80;100.00;96541.78;5038406;28;20021;-77
2022/05/13 07:19:02;;;;;;;12.65;6.85;;;;;;;16.54;100.00;96552.97;5033815;28;20095;-77
2022/05/13 07:21:28;;;;;;;9.38;5.63;;;;;;;16.66;100.00;96556.75;5024912;28;20042;-77
2022/05/13 07:23:54;;;;;;;13.25;6.80;;;;;;;16.69;100.00;96562.50;5015762;28;20033;-78
2022/05/13 07:26:19;;;;;;;10.60;6.43;;;;;;;16.67;100.00;96564.53;5030405;28;20045;-77
2022/05/13 07:28:45;;;;;;;9.30;6.63;;;;;;;16.52;100.00;96565.59;5031482;28;20398;-77
2022/05/13 07:31:11;;;;;;;9.82;5.53;;;;;;;16.48;100.00;96570.47;5016327;28;20042;-77
2022/05/13 07:33:36;;;;;;;11.75;5.80;;;;;;;16.43;100.00;96570.19;5029343;28;20071;-77
2022/05/13 07:36:03;;;;;;;11.70;6.68;;;;;;;16.18;100.00;96575.84;5014093;28;20040;-77
2022/05/13 07:38:31;;;;;;;12.43;6.25;;;;;;;16.30;100.00;96578.84;5042814;28;20033;-77
2022/05/13 07:41:16;;;;;;;11.52;5.78;;;;;;;16.22;100.00;96578.94;5032849;28;20046;-77
2022/05/13 07:43:43;;;;;;;8.75;5.43;;;;;;;16.29;100.00;96584.31;5049226;28;20037;-77
2022/05/13 07:46:09;;;;;;;12.45;6.43;;;;;;;16.22;100.00;96574.44;5013522;28;20111;-77
2022/05/13 07:48:38;;;;;;;9.02;6.03;;;;;;;16.23;100.00;96575.28;5042087;28;20394;-77
2022/05/13 07:51:04;;;;;;;8.63;6.00;;;;;;;16.50;100.00;96573.75;5035885;28;20044;-77
2022/05/13 07:53:29;;;;;;;10.32;6.22;;;;;;;16.66;100.00;96573.50;5061039;28;20025;-77
2022/05/13 07:55:55;;;;;;;11.10;5.65;;;;;;;16.66;100.00;96573.50;5048163;28;20036;-77
2022/05/13 07:58:21;;;;;;;10.15;6.55;;;;;;;16.62;100.00;96576.72;5036529;28;20049;-77
2022/05/13 08:00:47;;;;;;;10.73;5.80;;;;;;;16.59;100.00;96585.88;5018331;28;20101;-77
2022/05/13 08:03:15;;;;;;;10.15;6.63;;;;;;;16.47;100.00;96595.38;5041532;28;20061;-77
2022/05/13 08:05:51;;;;;;;11.57;7.20;;;;;;;16.31;100.00;96582.31;5028262;28;20048;-77
2022/05/13 08:08:21;;;;;;;13.25;6.60;;;;;;;16.20;100.00;96584.44;5039315;28;20040;-77
2022/05/13 08:10:53;;;;;;;9.52;6.15;;;;;;;16.35;100.00;96581.75;5044829;28;20405;-77
2022/05/13 08:13:20;;;;;;;15.48;8.70;;;;;;;16.33;100.00;96593.56;5030051;28;20491;-77
2022/05/13 08:15:46;;;;;;;11.32;6.80;;;;;;;16.18;100.00;96602.38;5037711;28;20100;-77
2022/05/13 08:18:13;;;;;;;12.13;6.07;;;;;;;16.27;100.00;96595.16;5027633;28;20777;-76
2022/05/13 08:20:38;;;;;;;11.27;6.45;;;;;;;16.44;100.00;96596.56;5039712;28;20041;-77
2022/05/13 08:23:04;;;;;;;13.95;5.40;;;;;;;16.60;100.00;96595.53;5017892;28;20029;-77
2022/05/13 08:25:31;;;;;;;9.90;5.10;;;;;;;16.57;100.00;96593.25;5022865;28;20140;-77
2022/05/13 08:27:56;;;;;;;10.10;4.93;;;;;;;16.38;100.00;96592.00;5037637;28;20040;-77
2022/05/13 08:30:23;;;;;;;8.38;4.35;;;;;;;16.55;100.00;96602.41;5020234;28;20029;-76
2022/05/13 08:32:49;;;;;;;10.88;5.03;;;;;;;16.69;100.00;96610.31;5011501;28;20038;-77
2022/05/13 08:35:16;;;;;;;10.05;6.20;;;;;;;16.73;100.00;96602.78;5031750;28;20033;-76
2022/05/13 08:37:43;;;;;;;10.63;5.57;;;;;;;16.80;100.00;96610.84;5037796;28;20127;-78
2022/05/13 08:40:22;;;;;;;9.85;5.50;;;;;;;16.94;100.00;96607.34;5029392;28;20509;-76
2022/05/13 08:42:49;;;;;;;12.40;5.80;;;;;;;17.33;100.00;96598.88;5044205;28;20045;-76
2022/05/13 08:45:17;;;;;;;9.60;5.80;;;;;;;17.39;100.00;96608.72;5033008;28;20113;-76
2022/05/13 08:47:55;;;;;;;7.53;4.78;;;;;;;17.41;100.00;96601.41;5036336;28;20550;-76
2022/05/13 08:50:53;;;;;;;9.60;5.38;;;;;;;17.66;100.00;96600.94;5024051;28;20034;-76
2022/05/13 08:53:34;;;;;;;14.55;5.47;;;;;;;17.56;100.00;96601.28;5020444;28;20037;-77
2022/05/13 08:56:05;;;;;;;7.95;3.85;;;;;;;17.73;100.00;96591.16;5037919;28;20053;-76
2022/05/13 08:58:37;;;;;;;10.52;3.97;;;;;;;18.35;100.00;96586.81;5042751;28;20038;-76
2022/05/13 09:01:11;;;;;;;8.40;4.07;;;;;;;18.75;100.00;96584.28;5034158;28;20100;-76
2022/05/13 09:03:39;;;;;;;;;;;;;;;19.44;100.00;96586.56;5021298;28;20026;-77
2022/05/13 09:06:13;;;;;;;7.90;3.92;;;;;;;19.54;100.00;96580.81;5016222;28;19932;-76
2022/05/13 09:08:40;;;;;;;12.60;4.22;;;;;;;19.62;100.00;96582.47;5034288;28;20487;-76
2022/05/13 09:11:12;;;;;;;12.27;4.32;;;;;;;20.34;100.00;96586.81;5014765;28;20811;-76
2022/05/13 09:13:44;;;;;;;11.85;4.65;;;;;;;20.99;97.07;96583.19;5020417;28;20044;-77
2022/05/13 09:16:10;;;;;;;10.37;3.70;;;;;;;21.70;84.62;96577.50;5024629;28;20041;-76
2022/05/13 09:19:17;;;;;;;11.57;3.42;;;;;;;21.70;82.87;96577.50;5024364;28;20040;-77
2022/05/13 09:21:43;;;;;;;10.50;4.18;;;;;;;20.74;92.98;96591.97;5024220;28;20052;-77
2022/05/13 09:24:10;;;;;;;7.25;3.92;;;;;;;20.55;91.28;96595.56;5028225;28;20029;-77
2022/05/13 09:26:38;;;;;;;7.20;3.75;;;;;;;20.29;93.95;96586.63;5036005;28;20187;-77
2022/05/13 09:29:11;;;;;;;10.27;4.53;;;;;;;19.51;100.00;96595.38;5032590;28;20022;-78
2022/05/13 09:31:41;;;;;;;10.25;3.47;;;;;;;18.91;98.14;96589.22;5031564;28;20040;-76
2022/05/13 09:34:25;;;;;;;8.90;4.97;;;;;;;18.67;100.00;96589.75;5037611;28;20029;-77
2022/05/13 09:36:51;;;;;;;7.93;3.63;;;;;;;18.16;100.00;96598.19;5039700;28;20067;-76
2022/05/13 09:39:24;;;;;;;7.75;3.65;;;;;;;17.95;100.00;96594.63;5033510;28;20113;-76
2022/05/13 09:41:53;;;;;;;9.05;4.30;;;;;;;18.16;100.00;96596.34;5026230;28;20044;-77
2022/05/13 09:44:25;;;;;;;10.20;3.97;;;;;;;18.28;100.00;96600.09;5040525;28;20037;-76
2022/05/13 09:47:08;;;;;;;11.45;3.95;;;;;;;18.18;100.00;96598.81;5025879;28;20034;-76
2022/05/13 09:49:38;;;;;;;8.50;3.60;;;;;;;18.35;97.18;96590.28;5037728;28;20025;-77
2022/05/13 09:52:35;;;;;;;10.68;5.78;;;;;;;18.77;96.52;96583.03;5031267;28;20471;-77
2022/05/13 09:55:15;;;;;;;16.92;11.20;;;;;;;19.41;92.54;96586.97;5005585;28;20044;-77
2022/05/13 09:57:41;;;;;;;13.55;5.13;;;;;;;19.14;94.85;96582.69;5033087;28;20037;-77
2022/05/13 10:00:14;;;;;;;12.82;5.05;;;;;;;19.27;100.00;96577.34;5036815;28;20040;-76
2022/05/13 10:02:49;;;;;;;9.60;3.75;;;;;;;19.51;93.59;96578.56;5039962;28;20065;-77
2022/05/13 10:05:25;;;;;;;11.02;5.40;;;;;;;18.81;90.63;96578.13;5026381;28;20109;-76
2022/05/13 10:07:51;;;;;;;13.00;4.05;;;;;;;19.13;90.91;96591.72;5040416;28;20036;-76
2022/05/13 10:16:10;;;;;;;9.40;3.58;;;;;;;18.80;92.72;96577.31;5046843;28;20040;-76
2022/05/13 10:18:47;;;;;;;9.07;3.30;;;;;;;19.69;88.62;96580.66;5020632;28;20017;-76
2022/05/13 10:21:21;;;;;;;8.68;3.20;;;;;;;20.44;82.33;96579.16;5046756;28;20028;-76
2022/05/13 10:24:24;;;;;;;7.30;2.90;;;;;;;20.88;77.92;96577.50;5047517;28;20078;-76
2022/05/13 10:26:51;;;;;;;7.68;2.95;;;;;;;20.46;74.66;96582.44;5030382;28;20069;-76
2022/05/13 10:29:26;;;;;;;7.00;2.38;;;;;;;20.96;74.75;96576.44;5042291;28;20039;-76
2022/05/13 10:31:54;;;;;;;9.32;2.90;;;;;;;20.90;75.84;96580.78;5046672;28;20494;-76
2022/05/13 10:34:35;;;;;;;9.55;3.00;;;;;;;20.50;79.64;96590.84;5026904;28;20036;-76
2022/05/13 10:37:04;;;;;;;7.70;2.90;;;;;;;19.98;79.28;96580.13;5028746;28;20037;-76
2022/05/13 10:39:43;;;;;;;8.90;3.75;;;;;;;19.63;79.20;96584.09;5042824;28;20108;-76
2022/05/13 10:42:15;;;;;;;11.55;5.13;;;;;;;19.36;83.97;96585.97;5028423;28;20040;-77
2022/05/13 10:44:47;;;;;;;12.65;3.78;;;;;;;19.59;83.50;96580.22;5029527;28;20162;-76
2022/05/13 10:47:26;;;;;;;9.37;3.27;;;;;;;19.61;83.27;96586.16;5038662;28;20108;-76
2022/05/13 10:49:51;;;;;;;14.48;4.90;;;;;;;19.46;82.46;96581.88;5042664;28;20063;-76
2022/05/13 10:52:29;;;;;;;10.65;3.50;;;;;;;19.82;80.21;96579.78;5028804;28;20660;-76
2022/05/13 10:55:20;;;;;;;10.32;4.18;;;;;;;20.70;75.61;96588.09;5032349;28;20112;-76
2022/05/13 10:58:12;;;;;;;12.57;4.22;;;;;;;20.28;78.42;96590.31;5037055;28;20102;-76
2022/05/13 11:00:44;;;;;;;6.83;3.27;;;;;;;21.15;74.42;96586.16;5015950;28;20056;-76
2022/05/13 11:03:28;;;;;;;9.93;3.67;;;;;;;21.16;71.91;96592.34;5038666;28;20468;-77
2022/05/13 11:06:26;;;;;;;;;;;;;;;20.70;74.61;96585.44;5040327;28;20052;-76
2022/05/13 11:09:13;;;;;;;7.28;2.92;;;;;;;20.25;68.70;96580.91;5051625;28;19918;-76
2022/05/13 11:11:45;;;;;;;8.07;3.53;;;;;;;20.29;74.62;96588.47;5034148;28;20492;-76
2022/05/13 11:14:32;;;;;;;9.43;3.35;;;;;;;20.09;74.25;96586.69;5024422;28;20395;-76
2022/05/13 11:17:22;;;;;;;6.05;2.92;;;;;;;19.64;72.99;96583.91;5026364;28;20511;-76
2022/05/13 11:20:01;;;;;;;10.95;3.20;;;;;;;20.41;70.74;96586.78;5020620;28;20048;-76
2022/05/13 11:22:51;;;;;;;8.85;3.17;;;;;;;21.15;67.39;96579.97;5027362;28;20039;-76
2022/05/13 11:28:35;;;;;;;8.05;4.10;;;;;;;21.46;65.82;96581.00;5035272;28;20058;-76
2022/05/13 11:31:08;;;;;;;6.78;3.00;;;;;;;21.32;68.21;96582.94;5027820;28;20033;-76
2022/05/13 11:33:55;;;;;;;9.38;3.50;;;;;;;21.10;64.83;96591.34;5034975;28;20028;-76
2022/05/13 11:36:48;;;;;;;8.23;3.67;;;;;;;20.30;69.61;96590.94;5023109;28;20510;-76
2022/05/13 11:39:51;;;;;;;8.57;3.63;;;;;;;20.35;72.14;96587.63;5037819;28;20052;-78
2022/05/13 11:42:35;;;;;;;9.35;4.10;;;;;;;20.14;73.77;96589.53;5031103;28;20037;-76
2022/05/13 11:45:19;;;;;;;9.95;3.65;;;;;;;20.35;71.93;96591.09;5024871;28;20085;-76
2022/05/13 11:48:27;;;;;;;7.53;4.07;;;;;;;20.79;72.83;96592.19;5038224;28;20033;-76
2022/05/13 11:51:04;;;;;;;6.45;3.38;;;;;;;20.49;72.22;96584.69;5038312;28;20060;-76
2022/05/13 11:53:50;;;;;;;8.20;3.70;;;;;;;21.22;63.05;96587.97;5026067;28;20065;-76